Select METAR Reports

 

KLWC - Lawrence, Kansas USA
Distance from station: S 12mi, 20km
Updated: 12/18/2018 4:52am CST
Clear
Clear
 Wind from calm
Wind: Calm
Temperature: 27°F , -3°C
Dew Point: 21°F , -6°C
Humidity: 80%
Barometer: 30.10 inHg , 1019.3 hPa
Clouds: Clear
Visibility: 10 miles , 16 km
2018/12/18 10:52 KLWC 181052Z AUTO 00000KT 10SM CLR M03/M06 A3010 RMK AO2 SLP199 T10331056
KTOP - Topeka/Billard, Kansas USA
Distance from station: WSW 23mi, 37km
Updated: 12/18/2018 3:53am CST
NOT Current
Clear
Clear
 Wind from calm
Wind: Calm
Temperature: 27°F , -3°C
Dew Point: 23°F , -5°C
Humidity: 86%
Barometer: 30.10 inHg , 1019.3 hPa
Clouds: Clear
Visibility: 10 miles , 16 km
2018/12/18 09:53 KTOP 180953Z AUTO 00000KT 10SM CLR M03/M05 A3010 RMK AO2 SLP195 T10281050
 
KMCI - Kansas City Intl, Missouri USA
Distance from station: ENE 28mi, 45km
Updated: 12/18/2018 4:53am CST
Clear
Clear
 Wind from SSE
Wind: SSE 9 mph , 15 km/h
Temperature: 32°F , 0°C
Wind Chill: 24°F , -4°C
Dew Point: 25°F , -4°C
Humidity: 75%
Barometer: 30.09 inHg , 1019 hPa
Clouds: Clear
Visibility: 10 miles , 16 km
2018/12/18 10:53 KMCI 181053Z 16008KT 10SM CLR 00/M04 A3009 RMK AO2 SLP196 T00001039 $
KFOE - Topeka/Forbes, Kansas USA
Distance from station: SW 29mi, 46km
Updated: 12/18/2018 4:53am CST
Clear
Clear
 Wind from calm
Wind: Calm
Temperature: 28°F , -2°C
Dew Point: 25°F , -4°C
Humidity: 86%
Barometer: 30.09 inHg , 1019 hPa
Clouds: Clear
Visibility: 10 miles , 16 km
2018/12/18 10:53 KFOE 181053Z AUTO 00000KT 10SM CLR M02/M04 A3009 RMK AO2 SLP194 T10171039 TSNO
 
KIXD - Olathe/Industrial, Kansas USA
Distance from station: SE 32mi, 52km
Updated: 12/18/2018 4:53am CST
Clear
Clear
 Wind from SE
Wind: SE 8 mph , 13 km/h
Temperature: 36°F , 2°C
Wind Chill: 30°F , -1°C
Dew Point: 28°F , -2°C
Humidity: 75%
Barometer: 30.11 inHg , 1019.6 hPa
Clouds: Clear
Visibility: 10 miles , 16 km
2018/12/18 10:53 KIXD 181053Z AUTO 14007KT 10SM CLR 02/M02 A3011 RMK AO2 SLP201 T00171022
KMKC - Kansas City/Dntn, Missouri USA
Distance from station: E 35mi, 56km
Updated: 12/18/2018 4:54am CST
Clear
Clear
 Wind from calm
Wind: Calm
Temperature: 36°F , 2°C
Dew Point: 27°F , -3°C
Humidity: 70%
Barometer: 30.10 inHg , 1019.3 hPa
Clouds: Clear
Visibility: 10 miles , 16 km
2018/12/18 10:54 KMKC 181054Z 00000KT 10SM CLR 02/M03 A3010 RMK AO2 SLP196 T00171033
 
KMHK - Manhattan, Kansas USA
Distance from station: W 75mi, 120km
Updated: 12/18/2018 4:52am CST

 
Barometer: 30.06 inHg , 1017.9 hPa
2018/12/18 10:52 KMHK 181052Z AUTO A3006 RMK AO2 SLPNO PWINO FZRANO $
KFRI - Ft Riley/Marshal, Kansas, USA
Distance from station: W 83mi, 133km
Updated: 12/18/2018 4:56am CST
Clear
Clear
 Wind from calm
Wind: Calm
Temperature: 36°F , 2°C
Dew Point: 27°F , -3°C
Humidity: 70%
Barometer: 30.05 inHg , 1017.6 hPa
Clouds: Clear
Visibility: 10 miles , 16 km
2018/12/18 10:56 KFRI 181056Z AUTO 00000KT 10SM CLR 02/M03 A3005 RMK AO2 SLPNO T00211034
 
KOMA - Omaha, Nebraska USA
Distance from station: N 148mi, 239km
Updated: 12/18/2018 4:52am CST
Mostly cloudy
Mostly cloudy
 Wind from S
Wind: S 10 mph , 17 km/h
Temperature: 36°F , 2°C
Wind Chill: 29°F , -2°C
Dew Point: 27°F , -3°C
Humidity: 70%
Barometer: 30.01 inHg , 1016.3 hPa
Clouds: Mostly cloudy
Visibility: 10 miles , 16 km
Cloud details: Mostly cloudy 25000 ft
2018/12/18 10:52 KOMA 181052Z 18009KT 10SM BKN250 02/M03 A3001 RMK AO2 SLP170 T00171028
KICT - Wichita, Kansas USA
Distance from station: SW 176mi, 283km
Updated: 12/18/2018 4:53am CST
Clear
Clear
 Wind from SSE
Wind: SSE 3 mph , 6 km/h
Temperature: 30°F , -1°C
Dew Point: 25°F , -4°C
Humidity: 80%
Barometer: 30.04 inHg , 1017.3 hPa
Clouds: Clear
Visibility: 10 miles , 16 km
2018/12/18 10:53 KICT 181053Z 16003KT 10SM CLR M01/M04 A3004 RMK AO2 SLP178 T10111039 $
 
KDSM - Des Moines, Iowa USA
Distance from station: NNE 186mi, 300km
Updated: 12/18/2018 4:54am CST
Partly cloudy
Partly cloudy
 Wind from SSE
Wind: SSE 8 mph , 13 km/h
Temperature: 30°F , -1°C
Wind Chill: 22°F , -6°C
Dew Point: 25°F , -4°C
Humidity: 80%
Barometer: 30.08 inHg , 1018.6 hPa
Clouds: Partly cloudy
Visibility: 10 miles , 16 km
Cloud details: Partly cloudy 30000 ft
2018/12/18 10:54 KDSM 181054Z 16007KT 10SM SCT300 M01/M04 A3008 RMK AO2 SLP191 T10061039
KGLD - Goodland, Kansas USA
Distance from station: W 380mi, 611km
Updated: 12/18/2018 4:53am CST
Clear
Clear
 Wind from W
Wind: W 6 mph , 9 km/h
Temperature: 34°F , 1°C
Wind Chill: 29°F , -2°C
Dew Point: 23°F , -5°C
Humidity: 65%
Barometer: 29.92 inHg , 1013.2 hPa
Clouds: Clear
Visibility: 10 miles , 16 km
2018/12/18 10:53 KGLD 181053Z AUTO 28005KT 10SM CLR 01/M05 A2992 RMK AO2 SLP130 T00061050 TSNO $
 
KOKC - Oklahoma City, Oklahoma USA
Distance from station: SSW 288mi, 463km
Updated: 12/18/2018 4:52am CST
Overcast
Overcast
 Wind from SSE
Wind: SSE 3 mph , 6 km/h
Temperature: 41°F , 5°C
Dew Point: 34°F , 1°C
Humidity: 76%
Barometer: 30.07 inHg , 1018.3 hPa
Clouds: Overcast
Visibility: 10 miles , 16 km
Cloud details: Overcast 13000 ft
2018/12/18 10:52 KOKC 181052Z 16003KT 10SM OVC130 05/01 A3007 RMK AO2 SLP185 T00500011
KSTL - St Loius, Missouri USA
Distance from station: E 288mi, 463km
Updated: 12/18/2018 4:51am CST
Clear
Clear
 Wind from calm
Wind: Calm
Temperature: 28°F , -2°C
Dew Point: 23°F , -5°C
Humidity: 80%
Barometer: 30.22 inHg , 1023.4 hPa
Clouds: Clear
Visibility: 10 miles , 16 km
2018/12/18 10:51 KSTL 181051Z 00000KT 10SM CLR M02/M05 A3022 RMK AO2 SLP240 T10221050
 
KDFW - Dallas/Ft Worth, Texas USA
Distance from station: SSW 452mi, 728km
Updated: 12/18/2018 4:53am CST
Few Clouds
Few Clouds
 Wind from SSW
Wind: SSW 5 mph , 7 km/h
Temperature: 39°F , 4°C
Wind Chill: 35°F , 2°C
Dew Point: 36°F , 2°C
Humidity: 87%
Barometer: 30.09 inHg , 1019 hPa
Clouds: Few Clouds
Visibility: 10 miles , 16 km
Cloud details: Few Clouds 18000 ft
Few Clouds 25000 ft
2018/12/18 10:53 KDFW 181053Z 20004KT 10SM FEW180 FEW250 04/02 A3009 RMK AO2 SLP188 T00390022
PHNL - Honolulu, HI USA
Distance from station: WSW 3856mi, 6206km
Updated: 12/18/2018 4:53am CST
Few Clouds
Few Clouds
 Wind from NNW
Wind: NNW 5 mph , 7 km/h
Temperature: 68°F , 20°C
Dew Point: 61°F , 16°C
Humidity: 78%
Barometer: 30.14 inHg , 1020.7 hPa
Clouds: Few Clouds
Visibility: 10 miles , 16 km
Cloud details: Few Clouds 2700 ft
2018/12/18 10:53 PHNL 181053Z 34004KT 10SM FEW027 20/16 A3014 RMK AO2 SLP206 T02000161 VISNO RWY04R $